createdAt,value
2017-11-21T00:07:55.301Z,100109
2017-11-21T00:17:58.498Z,100118
2017-11-21T00:28:01.662Z,100117
2017-11-21T00:38:04.850Z,100103
2017-11-21T00:48:08.042Z,100103
2017-11-21T00:58:11.234Z,100114
2017-11-21T01:08:14.415Z,100110
2017-11-21T01:18:17.686Z,100103
2017-11-21T01:28:21.653Z,100117
2017-11-21T01:38:24.814Z,100111
2017-11-21T01:48:28.103Z,100111
2017-11-21T01:58:32.045Z,100106
2017-11-21T02:08:35.210Z,100097
2017-11-21T02:18:39.160Z,100094
2017-11-21T02:28:43.089Z,100089
2017-11-21T02:38:46.248Z,100076
2017-11-21T02:48:49.427Z,100069
2017-11-21T02:58:52.623Z,100091
2017-11-21T03:08:56.592Z,100097
2017-11-21T03:18:59.747Z,100091
2017-11-21T03:29:03.033Z,100090
2017-11-21T03:39:06.199Z,100107
2017-11-21T03:49:10.122Z,100110
2017-11-21T03:59:13.285Z,100090
2017-11-21T04:09:17.202Z,100102
2017-11-21T04:19:20.348Z,100108
2017-11-21T04:29:23.556Z,100099
2017-11-21T04:39:26.739Z,100094
2017-11-21T04:49:30.023Z,100106
2017-11-21T04:59:33.194Z,100087
2017-11-21T05:09:36.385Z,100105
2017-11-21T05:19:39.622Z,100100
2017-11-21T05:29:42.794Z,100118
2017-11-21T05:39:45.952Z,100116
2017-11-21T05:49:49.123Z,100125
2017-11-21T05:59:52.287Z,100105
2017-11-21T06:09:55.512Z,100108
2017-11-21T06:19:58.703Z,100108
2017-11-21T06:30:01.942Z,100110
2017-11-21T06:40:05.093Z,100112
2017-11-21T06:50:09.035Z,100130
2017-11-21T07:00:12.224Z,100147
2017-11-21T07:10:15.400Z,100149
2017-11-21T07:20:18.585Z,100152
2017-11-21T07:30:21.758Z,100150
2017-11-21T07:40:24.939Z,100163
2017-11-21T07:50:28.259Z,100167
2017-11-21T08:00:31.408Z,100173
2017-11-21T08:10:35.335Z,100184
2017-11-21T08:20:38.502Z,100182
2017-11-21T08:30:42.438Z,100185
2017-11-21T08:40:45.698Z,100196
2017-11-21T08:50:48.874Z,100200
2017-11-21T09:00:52.054Z,100199
2017-11-21T09:10:55.995Z,100205
2017-11-21T09:20:59.167Z,100196
2017-11-21T09:31:02.358Z,100199
2017-11-21T09:41:05.552Z,100200
2017-11-21T09:51:08.736Z,100204
2017-11-21T10:01:11.926Z,100226
2017-11-21T10:11:15.071Z,100217
2017-11-21T10:21:18.240Z,100195
2017-11-21T10:31:21.418Z,100190
2017-11-21T10:41:25.404Z,100166
2017-11-21T10:51:28.592Z,100161
2017-11-21T11:01:31.802Z,100149
2017-11-21T11:11:34.944Z,100148
2017-11-21T11:21:38.146Z,100150
2017-11-21T11:31:41.336Z,100145
2017-11-21T11:41:44.531Z,100142
2017-11-21T11:51:47.733Z,100138
2017-11-21T12:01:51.735Z,100131
2017-11-21T12:11:55.013Z,100120
2017-11-21T12:21:58.194Z,100123
2017-11-21T12:32:01.386Z,100105
2017-11-21T12:42:04.639Z,100110
2017-11-21T12:52:07.771Z,100115
2017-11-21T13:02:11.746Z,100118
2017-11-21T13:12:15.658Z,100088
2017-11-21T13:22:18.914Z,100097
2017-11-21T13:32:22.092Z,100084
2017-11-21T13:42:25.262Z,100068
2017-11-21T13:52:28.463Z,100063
2017-11-21T14:02:44.406Z,100074
2017-11-21T14:12:47.588Z,100060
2017-11-21T14:22:50.867Z,100077
2017-11-21T14:32:54.476Z,100093
2017-11-21T14:42:57.656Z,100082
2017-11-21T14:53:00.836Z,100087
2017-11-21T15:03:04.021Z,100091
2017-11-21T15:13:07.953Z,100086
2017-11-21T15:23:11.138Z,100104
2017-11-21T15:33:14.430Z,100115
2017-11-21T15:43:17.600Z,100102
2017-11-21T15:53:20.792Z,100090
2017-11-21T16:03:23.985Z,100093
2017-11-21T16:13:27.160Z,100098
2017-11-21T16:23:30.357Z,100096
2017-11-21T16:33:33.555Z,100103
2017-11-21T16:43:36.783Z,100119
2017-11-21T16:53:39.947Z,100121
2017-11-21T17:03:43.891Z,100126
2017-11-21T17:13:47.839Z,100130
2017-11-21T17:23:51.029Z,100145
2017-11-21T17:33:54.210Z,100132
2017-11-21T17:43:57.402Z,100146
2017-11-21T17:54:00.565Z,100122
2017-11-21T18:04:03.799Z,100104
2017-11-21T18:14:07.000Z,100121
2017-11-21T18:24:10.974Z,100124
2017-11-21T18:34:14.216Z,100136
2017-11-21T18:44:17.415Z,100144
2017-11-21T18:54:21.383Z,100142
2017-11-21T19:04:24.573Z,100124
2017-11-21T19:14:27.736Z,100137
2017-11-21T19:24:30.892Z,100129
2017-11-21T19:34:34.124Z,100136
2017-11-21T19:44:37.323Z,100135
2017-11-21T19:54:40.567Z,100132
2017-11-21T20:04:43.732Z,100122
2017-11-21T20:14:46.944Z,100123
2017-11-21T20:24:50.113Z,100120
2017-11-21T20:34:53.377Z,100099
2017-11-21T20:44:57.455Z,100088
2017-11-21T20:55:00.772Z,100099
2017-11-21T21:05:03.979Z,100105
2017-11-21T21:15:07.938Z,100094
2017-11-21T21:25:11.970Z,100102
2017-11-21T21:35:15.206Z,100107
2017-11-21T21:45:18.448Z,100084
2017-11-21T21:55:21.638Z,100076
2017-11-21T22:05:24.839Z,100086
2017-11-21T22:15:28.796Z,100084
2017-11-21T22:25:32.962Z,100092
2017-11-21T22:35:36.162Z,100088
2017-11-21T22:45:39.315Z,100094
2017-11-21T22:55:43.429Z,100086
2017-11-21T23:05:46.701Z,100085
2017-11-21T23:15:49.868Z,100070
2017-11-21T23:25:53.798Z,100062
2017-11-21T23:35:57.782Z,100055
2017-11-21T23:46:01.703Z,100052
2017-11-21T23:56:04.920Z,100050
